createdAt,value
2023-02-15T00:03:54.684Z,100608.94
2023-02-15T00:08:12.333Z,100604.59
2023-02-15T00:12:18.624Z,100595.81
2023-02-15T00:16:22.427Z,100601.22
2023-02-15T00:20:33.160Z,100585.84
2023-02-15T00:24:37.423Z,100590.16
2023-02-15T00:28:46.880Z,100583.59
2023-02-15T00:32:51.308Z,100574.16
2023-02-15T00:36:56.307Z,100587.09
2023-02-15T00:41:00.525Z,100586.84
2023-02-15T00:45:06.452Z,100576.28
2023-02-15T00:49:10.432Z,100582.50
2023-02-15T00:53:17.084Z,100584.78
2023-02-15T00:57:24.053Z,100576.81
2023-02-15T01:01:30.290Z,100578.34
2023-02-15T01:05:35.413Z,100584.28
2023-02-15T01:09:43.122Z,100575.25
2023-02-15T01:13:47.511Z,100570.56
2023-02-15T01:17:54.882Z,100573.06
2023-02-15T01:21:58.746Z,100562.66
2023-02-15T01:26:04.943Z,100567.84
2023-02-15T01:30:10.452Z,100574.19
2023-02-15T01:34:16.467Z,100558.38
2023-02-15T01:38:20.437Z,100568.91
2023-02-15T01:42:24.388Z,100561.41
2023-02-15T01:46:31.863Z,100556.84
2023-02-15T01:50:45.632Z,100548.13
2023-02-15T01:54:49.649Z,100560.09
2023-02-15T01:58:59.323Z,100555.31
2023-02-15T02:03:03.222Z,100550.09
2023-02-15T02:07:13.039Z,100525.16
2023-02-15T02:11:22.798Z,100552.50
2023-02-15T02:15:32.055Z,100548.53
2023-02-15T02:20:08.656Z,100545.75
2023-02-15T02:24:37.097Z,100533.88
2023-02-15T02:29:08.394Z,100531.91
2023-02-15T02:33:22.705Z,100536.41
2023-02-15T02:37:31.203Z,100514.47
2023-02-15T02:41:38.474Z,100528.97
2023-02-15T02:45:46.127Z,100522.06
2023-02-15T02:49:50.797Z,100518.13
2023-02-15T02:53:56.590Z,100517.84
2023-02-15T02:58:02.858Z,100508.66
2023-02-15T03:02:13.914Z,100515.69
2023-02-15T03:06:19.208Z,100509.81
2023-02-15T03:10:24.735Z,100507.25
2023-02-15T03:14:27.986Z,100508.09
2023-02-15T03:18:35.802Z,100506.09
2023-02-15T03:22:43.123Z,100504.22
2023-02-15T03:26:49.180Z,100495.81
2023-02-15T03:30:56.193Z,100485.69
2023-02-15T03:35:00.115Z,100497.69
2023-02-15T03:39:12.151Z,100483.81
2023-02-15T03:43:19.423Z,100491.31
2023-02-15T03:47:26.473Z,100484.53
2023-02-15T03:51:36.197Z,100483.34
2023-02-15T03:55:40.728Z,100483.69
2023-02-15T04:00:01.411Z,100481.53
2023-02-15T04:04:10.136Z,100491.75
2023-02-15T04:08:14.432Z,100489.31
2023-02-15T04:12:19.155Z,100498.56
2023-02-15T04:16:22.394Z,100500.91
2023-02-15T04:20:42.904Z,100500.09
2023-02-15T04:25:03.843Z,100492.44
2023-02-15T04:29:08.681Z,100492.63
2023-02-15T04:33:11.787Z,100505.38
2023-02-15T04:37:15.020Z,100519.03
2023-02-15T04:41:18.349Z,100517.00
2023-02-15T04:45:23.534Z,100505.81
2023-02-15T04:49:26.945Z,100513.31
2023-02-15T04:53:30.273Z,100502.13
2023-02-15T04:57:33.769Z,100505.41
2023-02-15T05:01:38.514Z,100512.78
2023-02-15T05:05:42.459Z,100500.06
2023-02-15T05:09:46.114Z,100500.34
2023-02-15T05:13:49.892Z,100502.53
2023-02-15T05:17:54.656Z,100501.56
2023-02-15T05:21:57.668Z,100512.88
2023-02-15T05:26:18.247Z,100521.47
2023-02-15T05:30:22.257Z,100521.09
2023-02-15T05:34:27.199Z,100523.41
2023-02-15T05:38:30.746Z,100517.81
2023-02-15T05:42:34.584Z,100513.72
2023-02-15T05:46:38.216Z,100518.75
2023-02-15T05:50:43.650Z,100525.84
2023-02-15T05:54:46.865Z,100533.22
2023-02-15T05:58:51.906Z,100536.09
2023-02-15T06:02:55.684Z,100536.06
2023-02-15T06:07:00.861Z,100531.59
2023-02-15T06:11:07.455Z,100538.97
2023-02-15T06:15:11.638Z,100528.59
2023-02-15T06:19:15.804Z,100536.91
2023-02-15T06:23:24.199Z,100535.44
2023-02-15T06:27:28.433Z,100532.41
2023-02-15T06:31:37.390Z,100537.31
2023-02-15T06:35:44.438Z,100531.44
2023-02-15T06:40:03.618Z,100538.13
2023-02-15T06:44:08.211Z,100545.25
2023-02-15T06:48:28.269Z,100540.19
2023-02-15T06:52:32.214Z,100532.13
2023-02-15T06:56:37.417Z,100534.75
2023-02-15T07:00:43.761Z,100535.41
2023-02-15T07:04:50.747Z,100532.28
2023-02-15T07:08:54.747Z,100533.06
2023-02-15T07:12:59.897Z,100518.06
2023-02-15T07:17:11.741Z,100520.91
2023-02-15T07:21:22.122Z,100523.75
2023-02-15T07:25:26.043Z,100515.03
2023-02-15T07:29:31.047Z,100516.44
2023-02-15T07:33:35.603Z,100507.66
2023-02-15T07:37:41.793Z,100505.16
2023-02-15T07:41:45.388Z,100501.25
2023-02-15T07:45:50.738Z,100501.91
2023-02-15T07:49:54.920Z,100496.63
2023-02-15T07:54:01.640Z,100496.78
2023-02-15T07:58:07.927Z,100497.53
2023-02-15T08:02:13.769Z,100491.63
2023-02-15T08:06:17.390Z,100489.66
2023-02-15T08:10:42.109Z,100495.50
2023-02-15T08:14:48.891Z,100496.91
2023-02-15T08:19:00.295Z,100492.81
2023-02-15T08:23:04.437Z,100487.41
2023-02-15T08:27:10.155Z,100495.38
2023-02-15T08:35:40.147Z,100492.81
2023-02-15T08:39:45.634Z,100486.66
2023-02-15T08:43:55.456Z,100479.00
2023-02-15T08:48:01.722Z,100489.91
2023-02-15T08:52:08.314Z,100486.56
2023-02-15T08:56:14.842Z,100491.94
2023-02-15T09:00:20.649Z,100483.06
2023-02-15T09:04:25.160Z,100488.13
2023-02-15T09:08:31.045Z,100482.25
2023-02-15T09:12:37.914Z,100483.72
2023-02-15T09:16:43.769Z,100483.91
2023-02-15T09:20:47.598Z,100482.19
2023-02-15T09:24:52.916Z,100483.25
2023-02-15T09:28:59.221Z,100486.63
2023-02-15T09:33:09.093Z,100485.69
2023-02-15T09:37:13.659Z,100476.00
2023-02-15T09:41:22.479Z,100479.22
2023-02-15T09:45:48.545Z,100481.81
2023-02-15T09:50:11.932Z,100482.22
2023-02-15T09:54:26.256Z,100480.38
2023-02-15T09:58:42.707Z,100482.97
2023-02-15T10:03:05.890Z,100479.88
2023-02-15T10:07:25.377Z,100470.25
2023-02-15T10:11:45.496Z,100485.59
2023-02-15T10:20:41.047Z,100476.00
2023-02-15T10:25:32.542Z,100482.34
2023-02-15T10:29:50.224Z,100476.25
2023-02-15T10:34:02.148Z,100483.50
2023-02-15T10:38:15.239Z,100466.41
2023-02-15T10:42:23.920Z,100466.59
2023-02-15T10:46:41.251Z,100458.69
2023-02-15T10:50:52.805Z,100461.19
2023-02-15T10:55:02.201Z,100453.06
2023-02-15T10:59:27.115Z,100447.53
2023-02-15T11:03:39.894Z,100441.53
2023-02-15T11:07:45.940Z,100427.78
2023-02-15T11:11:52.190Z,100421.72
2023-02-15T11:15:57.617Z,100414.09
2023-02-15T11:20:07.292Z,100408.72
2023-02-15T11:24:14.150Z,100397.66
2023-02-15T11:28:25.986Z,100394.47
2023-02-15T11:32:32.009Z,100393.06
2023-02-15T11:36:39.658Z,100389.00
2023-02-15T11:40:49.240Z,100378.34
2023-02-15T11:45:01.710Z,100373.69
2023-02-15T11:49:05.332Z,100375.59
2023-02-15T11:53:17.946Z,100370.38
2023-02-15T11:57:34.775Z,100363.13
2023-02-15T12:01:44.503Z,100363.97
2023-02-15T12:05:49.989Z,100361.84
2023-02-15T12:09:57.668Z,100348.63
2023-02-15T12:14:04.794Z,100337.34
2023-02-15T12:18:20.511Z,100322.59
2023-02-15T12:22:27.736Z,100308.19
2023-02-15T12:26:35.715Z,100317.81
2023-02-15T12:30:39.713Z,100327.75
2023-02-15T12:34:48.518Z,100318.78
2023-02-15T12:39:08.533Z,100315.56
2023-02-15T12:43:28.531Z,100306.00
2023-02-15T12:47:33.577Z,100300.81
2023-02-15T12:51:59.480Z,100306.44
2023-02-15T12:56:04.767Z,100303.22
2023-02-15T13:00:27.794Z,100309.44
2023-02-15T13:04:31.720Z,100307.59
2023-02-15T13:08:36.246Z,100292.09
2023-02-15T13:12:41.268Z,100294.22
2023-02-15T13:16:47.347Z,100276.28
2023-02-15T13:20:51.471Z,100271.50
2023-02-15T13:25:01.156Z,100252.69
2023-02-15T13:29:11.321Z,100267.56
2023-02-15T13:33:18.563Z,100249.44
2023-02-15T13:37:27.355Z,100247.91
2023-02-15T13:41:42.521Z,100243.44
2023-02-15T13:45:56.674Z,100250.28
2023-02-15T13:50:18.751Z,100255.19
2023-02-15T13:55:07.604Z,100251.47
2023-02-15T13:59:43.882Z,100260.88
2023-02-15T14:04:10.209Z,100257.81
2023-02-15T14:08:16.204Z,100252.53
2023-02-15T14:12:34.546Z,100236.97
2023-02-15T14:17:04.330Z,100242.06
2023-02-15T14:21:13.490Z,100242.47
2023-02-15T14:25:21.204Z,100239.19
2023-02-15T14:29:31.412Z,100241.72
2023-02-15T14:33:41.059Z,100242.81
2023-02-15T14:37:53.820Z,100238.91
2023-02-15T14:42:00.378Z,100239.75
2023-02-15T14:46:09.641Z,100237.97
2023-02-15T14:50:45.780Z,100231.75
2023-02-15T14:54:57.298Z,100235.16
2023-02-15T14:59:03.192Z,100237.28
2023-02-15T15:03:13.783Z,100229.09
2023-02-15T15:07:22.132Z,100234.59
2023-02-15T15:11:46.064Z,100235.38
2023-02-15T15:15:50.126Z,100232.56
2023-02-15T15:20:02.406Z,100235.38
2023-02-15T15:24:08.418Z,100234.53
2023-02-15T15:28:11.402Z,100215.78
2023-02-15T15:32:18.672Z,100213.41
2023-02-15T15:36:38.298Z,100233.56
2023-02-15T15:40:58.950Z,100226.78
2023-02-15T15:45:37.591Z,100225.25
2023-02-15T15:49:42.880Z,100223.44
2023-02-15T15:53:49.993Z,100223.44
2023-02-15T15:57:59.617Z,100217.53
2023-02-15T16:02:07.340Z,100219.22
2023-02-15T16:06:14.573Z,100228.19
2023-02-15T16:10:23.917Z,100216.50
2023-02-15T16:14:33.364Z,100212.81
2023-02-15T16:18:43.605Z,100217.28
2023-02-15T16:22:47.332Z,100215.56
2023-02-15T16:27:21.091Z,100217.91
2023-02-15T16:31:26.161Z,100229.88
2023-02-15T16:35:29.782Z,100228.13
2023-02-15T16:39:36.406Z,100220.66
2023-02-15T16:43:40.060Z,100222.97
2023-02-15T16:47:47.178Z,100221.06
2023-02-15T16:51:57.988Z,100213.09
2023-02-15T16:56:03.421Z,100212.81
2023-02-15T17:00:17.449Z,100221.84
2023-02-15T17:04:31.310Z,100228.59
2023-02-15T17:08:39.399Z,100239.34
2023-02-15T17:12:48.689Z,100241.47
2023-02-15T17:16:57.461Z,100238.97
2023-02-15T17:21:04.620Z,100236.47
2023-02-15T17:25:08.604Z,100243.81
2023-02-15T17:29:29.548Z,100239.34
2023-02-15T17:33:40.563Z,100237.94
2023-02-15T17:37:51.703Z,100248.91
2023-02-15T17:42:09.512Z,100247.03
2023-02-15T17:46:14.229Z,100243.69
2023-02-15T17:50:27.438Z,100247.72
2023-02-15T17:54:50.058Z,100256.78
2023-02-15T17:58:53.704Z,100249.25
2023-02-15T18:03:15.617Z,100237.81
2023-02-15T18:07:37.325Z,100228.81
2023-02-15T18:11:42.606Z,100245.31
2023-02-15T18:15:48.583Z,100252.69
2023-02-15T18:19:54.325Z,100257.69
2023-02-15T18:23:58.617Z,100258.53
2023-02-15T18:28:03.494Z,100249.88
2023-02-15T18:32:10.367Z,100251.38
2023-02-15T18:36:22.807Z,100249.88
2023-02-15T18:40:29.009Z,100252.50
2023-02-15T18:44:34.909Z,100252.28
2023-02-15T18:48:39.578Z,100233.25
2023-02-15T18:52:47.233Z,100248.41
2023-02-15T18:56:56.565Z,100251.69
2023-02-15T19:01:02.122Z,100248.28
2023-02-15T19:05:06.420Z,100253.38
2023-02-15T19:09:15.635Z,100261.94
2023-02-15T19:13:19.568Z,100249.03
2023-02-15T19:17:25.886Z,100259.13
2023-02-15T19:21:30.879Z,100258.31
2023-02-15T19:25:37.900Z,100259.22
2023-02-15T19:29:42.248Z,100257.75
2023-02-15T19:33:47.365Z,100259.53
2023-02-15T19:37:52.524Z,100253.59
2023-02-15T19:41:56.387Z,100252.41
2023-02-15T19:46:00.173Z,100246.53
2023-02-15T19:50:05.381Z,100249.09
2023-02-15T19:54:21.015Z,100253.50
2023-02-15T19:58:27.938Z,100256.06
2023-02-15T20:02:31.704Z,100251.00
2023-02-15T20:06:36.965Z,100257.69
2023-02-15T20:10:42.543Z,100258.28
2023-02-15T20:14:48.001Z,100264.03
2023-02-15T20:18:52.422Z,100262.66
2023-02-15T20:22:58.015Z,100266.09
2023-02-15T20:27:01.976Z,100264.72
2023-02-15T20:31:08.711Z,100266.16
2023-02-15T20:35:16.121Z,100255.09
2023-02-15T20:39:21.554Z,100272.22
2023-02-15T20:43:26.351Z,100269.56
2023-02-15T20:47:31.307Z,100252.75
2023-02-15T20:51:35.200Z,100272.56
2023-02-15T20:55:40.360Z,100266.47
2023-02-15T20:59:44.825Z,100279.38
2023-02-15T21:03:48.928Z,100275.03
2023-02-15T21:07:53.821Z,100271.25
2023-02-15T21:12:02.737Z,100260.56
2023-02-15T21:16:06.658Z,100268.16
2023-02-15T21:20:15.423Z,100257.03
2023-02-15T21:24:22.627Z,100280.06
2023-02-15T21:28:28.971Z,100278.69
2023-02-15T21:32:32.985Z,100281.78
2023-02-15T21:36:36.747Z,100278.56
2023-02-15T21:40:40.356Z,100255.25
2023-02-15T21:45:02.955Z,100273.63
2023-02-15T21:49:07.603Z,100266.13
2023-02-15T21:53:12.774Z,100264.75
2023-02-15T21:57:18.721Z,100259.97
2023-02-15T22:01:26.465Z,100277.28
2023-02-15T22:05:32.469Z,100282.94
2023-02-15T22:09:36.248Z,100289.38
2023-02-15T22:13:43.113Z,100273.81
2023-02-15T22:17:48.468Z,100278.81
2023-02-15T22:21:53.334Z,100266.44
2023-02-15T22:26:04.614Z,100273.34
2023-02-15T22:30:20.128Z,100270.25
2023-02-15T22:34:31.324Z,100272.84
2023-02-15T22:38:37.712Z,100279.88
2023-02-15T22:42:41.957Z,100274.88
2023-02-15T22:47:02.160Z,100279.66
2023-02-15T22:51:11.855Z,100272.53
2023-02-15T22:55:24.252Z,100271.78
2023-02-15T22:59:30.865Z,100275.41
2023-02-15T23:03:41.573Z,100279.78
2023-02-15T23:08:15.920Z,100283.13
2023-02-15T23:12:53.731Z,100287.91
2023-02-15T23:17:02.310Z,100282.22
2023-02-15T23:21:13.497Z,100278.75
2023-02-15T23:25:26.928Z,100273.19
2023-02-15T23:29:31.598Z,100288.13
2023-02-15T23:33:40.441Z,100298.72
2023-02-15T23:37:52.040Z,100293.81
2023-02-15T23:41:58.133Z,100301.78
2023-02-15T23:46:22.741Z,100288.69
2023-02-15T23:50:29.374Z,100292.75
2023-02-15T23:54:34.127Z,100292.84
2023-02-15T23:58:45.273Z,100304.97
